createdAt,value
2022-10-09T00:02:24.466Z,11.40
2022-10-09T00:05:27.139Z,11.40
2022-10-09T00:08:28.387Z,11.40
2022-10-09T00:11:32.318Z,11.40
2022-10-09T00:14:33.633Z,11.30
2022-10-09T00:17:34.373Z,11.20
2022-10-09T00:20:44.866Z,11.20
2022-10-09T00:23:45.797Z,11.20
2022-10-09T00:26:48.223Z,11.20
2022-10-09T00:29:50.475Z,11.20
2022-10-09T00:32:51.338Z,11.20
2022-10-09T00:35:52.582Z,11.10
2022-10-09T00:38:55.665Z,11.10
2022-10-09T00:41:56.697Z,11.00
2022-10-09T00:45:01.417Z,11.00
2022-10-09T00:48:07.639Z,11.00
2022-10-09T00:51:08.575Z,10.90
2022-10-09T00:54:15.861Z,10.80
2022-10-09T00:57:16.901Z,10.80
2022-10-09T01:00:18.039Z,10.80
2022-10-09T01:03:19.249Z,10.70
2022-10-09T01:06:48.692Z,10.80
2022-10-09T01:10:17.692Z,10.70
2022-10-09T01:13:32.760Z,10.70
2022-10-09T01:16:46.864Z,10.60
2022-10-09T01:20:23.270Z,10.50
2022-10-09T01:24:05.468Z,10.50
2022-10-09T01:27:16.193Z,10.50
2022-10-09T01:30:17.819Z,10.60
2022-10-09T01:33:19.332Z,10.50
2022-10-09T01:36:23.000Z,10.50
2022-10-09T01:39:26.802Z,10.50
2022-10-09T01:42:30.362Z,10.50
2022-10-09T01:45:44.347Z,10.40
2022-10-09T01:48:55.718Z,10.40
2022-10-09T01:52:21.706Z,10.30
2022-10-09T01:55:53.168Z,10.30
2022-10-09T01:59:06.823Z,10.30
2022-10-09T02:02:09.144Z,10.30
2022-10-09T02:05:17.800Z,10.30
2022-10-09T02:08:22.762Z,10.20
2022-10-09T02:11:29.532Z,10.10
2022-10-09T02:14:30.601Z,10.10
2022-10-09T02:17:39.600Z,10.10
2022-10-09T02:20:48.624Z,10.20
2022-10-09T02:23:51.792Z,10.20
2022-10-09T02:26:57.537Z,10.10
2022-10-09T02:30:01.049Z,10.10
2022-10-09T02:33:03.753Z,10.10
2022-10-09T02:36:04.953Z,10.00
2022-10-09T02:39:07.584Z,10.00
2022-10-09T02:42:08.396Z,10.00
2022-10-09T02:45:09.992Z,10.00
2022-10-09T02:48:11.238Z,10.00
2022-10-09T02:51:12.350Z,10.00
2022-10-09T02:54:13.514Z,10.00
2022-10-09T02:57:14.301Z,9.90
2022-10-09T03:00:15.604Z,9.90
2022-10-09T03:03:16.637Z,9.90
2022-10-09T03:06:24.881Z,9.90
2022-10-09T03:09:29.153Z,9.90
2022-10-09T03:12:32.133Z,9.80
2022-10-09T03:15:37.639Z,9.80
2022-10-09T03:18:39.820Z,9.70
2022-10-09T03:21:40.898Z,9.80
2022-10-09T03:24:41.782Z,9.70
2022-10-09T03:27:43.106Z,9.70
2022-10-09T03:30:44.120Z,9.60
2022-10-09T03:33:45.375Z,9.60
2022-10-09T03:36:46.843Z,9.60
2022-10-09T03:39:48.016Z,9.60
2022-10-09T03:42:49.067Z,9.60
2022-10-09T03:45:50.957Z,9.60
2022-10-09T03:48:51.886Z,9.50
2022-10-09T03:51:52.672Z,9.50
2022-10-09T03:54:53.472Z,9.50
2022-10-09T03:57:54.202Z,9.40
2022-10-09T04:00:55.329Z,9.50
2022-10-09T04:03:56.338Z,9.40
2022-10-09T04:06:59.995Z,9.40
2022-10-09T04:10:01.036Z,9.40
2022-10-09T04:13:02.238Z,9.40
2022-10-09T04:16:03.150Z,9.40
2022-10-09T04:19:04.738Z,9.30
2022-10-09T04:22:05.492Z,9.30
2022-10-09T04:25:07.002Z,9.20
2022-10-09T04:28:08.146Z,9.30
2022-10-09T04:31:09.379Z,9.20
2022-10-09T04:34:10.530Z,9.20
2022-10-09T04:37:11.568Z,9.20
2022-10-09T04:40:12.366Z,9.20
2022-10-09T04:43:13.209Z,9.20
2022-10-09T04:46:15.566Z,9.20
2022-10-09T04:49:16.493Z,9.30
2022-10-09T04:52:17.300Z,9.30
2022-10-09T04:55:18.388Z,9.20
2022-10-09T04:58:19.050Z,9.20
2022-10-09T05:01:24.009Z,9.20
2022-10-09T05:04:24.690Z,9.20
2022-10-09T05:07:25.571Z,9.20
2022-10-09T05:10:26.226Z,9.10
2022-10-09T05:13:37.742Z,9.00
2022-10-09T05:17:01.300Z,9.00
2022-10-09T05:19:59.642Z,9.00
2022-10-09T05:23:00.791Z,9.00
2022-10-09T05:26:12.768Z,9.00
2022-10-09T05:29:13.578Z,8.90
2022-10-09T05:32:15.004Z,9.00
2022-10-09T05:35:15.938Z,9.00
2022-10-09T05:38:17.081Z,9.00
2022-10-09T05:41:20.010Z,8.90
2022-10-09T05:44:20.883Z,9.00
2022-10-09T05:47:21.551Z,9.00
2022-10-09T05:50:22.584Z,9.00
2022-10-09T05:53:23.600Z,9.00
2022-10-09T05:56:31.436Z,9.10
2022-10-09T05:59:32.475Z,9.00
2022-10-09T06:02:33.157Z,9.00
2022-10-09T06:05:34.257Z,9.10
2022-10-09T06:08:38.098Z,9.10
2022-10-09T06:11:40.639Z,9.10
2022-10-09T06:14:41.892Z,9.20
2022-10-09T06:17:42.837Z,9.20
2022-10-09T06:20:58.684Z,9.30
2022-10-09T06:24:03.049Z,9.40
2022-10-09T06:27:04.101Z,9.40
2022-10-09T06:30:05.327Z,9.40
2022-10-09T06:33:06.104Z,9.50
2022-10-09T06:36:17.051Z,9.50
2022-10-09T06:39:17.846Z,9.50
2022-10-09T06:42:18.600Z,9.60
2022-10-09T06:45:30.405Z,9.70
2022-10-09T06:48:33.792Z,9.70
2022-10-09T06:51:36.015Z,9.80
2022-10-09T06:54:37.171Z,9.90
2022-10-09T06:57:38.179Z,9.90
2022-10-09T07:00:38.822Z,9.90
2022-10-09T07:03:43.180Z,10.00
2022-10-09T07:06:47.765Z,10.20
2022-10-09T07:09:48.634Z,10.20
2022-10-09T07:12:49.643Z,10.20
2022-10-09T07:15:50.754Z,10.30
2022-10-09T07:18:52.278Z,10.40
2022-10-09T07:21:53.641Z,10.40
2022-10-09T07:24:54.498Z,10.50
2022-10-09T07:27:56.014Z,10.60
2022-10-09T07:30:57.826Z,10.60
2022-10-09T07:33:59.548Z,10.70
2022-10-09T07:37:00.336Z,10.70
2022-10-09T07:40:01.185Z,10.80
2022-10-09T07:43:02.330Z,10.80
2022-10-09T07:46:05.933Z,10.80
2022-10-09T07:49:07.151Z,10.80
2022-10-09T07:52:08.189Z,10.90
2022-10-09T07:55:09.595Z,11.00
2022-10-09T07:58:10.742Z,11.20
2022-10-09T08:01:16.141Z,11.20
2022-10-09T08:04:19.829Z,11.30
2022-10-09T08:07:20.549Z,11.50
2022-10-09T08:10:21.505Z,11.70
2022-10-09T08:13:22.462Z,11.80
2022-10-09T08:16:26.228Z,11.90
2022-10-09T08:19:27.071Z,11.90
2022-10-09T08:22:28.064Z,12.10
2022-10-09T08:25:29.062Z,12.00
2022-10-09T08:28:31.041Z,12.00
2022-10-09T08:31:32.993Z,12.20
2022-10-09T08:34:34.050Z,12.30
2022-10-09T08:37:34.947Z,12.30
2022-10-09T08:40:58.397Z,12.30
2022-10-09T08:44:06.723Z,12.40
2022-10-09T08:47:30.683Z,12.40
2022-10-09T08:50:38.378Z,12.50
2022-10-09T08:53:58.769Z,12.70
2022-10-09T08:57:06.744Z,12.90
2022-10-09T09:00:20.981Z,13.00
2022-10-09T09:03:51.892Z,13.70
2022-10-09T09:07:11.269Z,13.80
2022-10-09T09:10:43.734Z,13.90
2022-10-09T09:14:19.282Z,14.40
2022-10-09T09:17:45.804Z,14.60
2022-10-09T09:21:05.923Z,15.20
2022-10-09T09:24:18.016Z,15.80
2022-10-09T09:27:32.742Z,16.60
2022-10-09T09:30:44.421Z,16.80
2022-10-09T09:34:15.802Z,17.30
2022-10-09T09:37:16.980Z,17.60
2022-10-09T09:40:37.582Z,16.80
2022-10-09T09:43:39.157Z,16.10
2022-10-09T09:46:42.038Z,15.70
2022-10-09T09:49:59.682Z,15.50
2022-10-09T09:53:15.594Z,15.40
2022-10-09T09:56:18.527Z,15.10
2022-10-09T09:59:40.999Z,13.70
2022-10-09T10:02:41.748Z,13.90
2022-10-09T10:05:44.831Z,14.10
2022-10-09T10:08:46.184Z,14.20
2022-10-09T10:12:03.970Z,14.10
2022-10-09T10:15:05.526Z,13.90
2022-10-09T10:18:14.329Z,14.00
2022-10-09T10:21:19.696Z,13.90
2022-10-09T10:24:29.593Z,13.90
2022-10-09T10:27:40.486Z,13.80
2022-10-09T10:30:43.925Z,13.70
2022-10-09T10:33:52.141Z,13.50
2022-10-09T10:37:25.529Z,13.60
2022-10-09T10:40:36.625Z,13.70
2022-10-09T10:44:04.132Z,13.80
2022-10-09T10:47:14.512Z,13.80
2022-10-09T10:50:19.474Z,13.60
2022-10-09T10:53:43.356Z,13.40
2022-10-09T10:57:16.907Z,13.60
2022-10-09T11:00:18.366Z,13.80
2022-10-09T11:03:43.679Z,13.80
2022-10-09T11:07:10.879Z,13.80
2022-10-09T11:10:32.400Z,13.70
2022-10-09T11:14:05.525Z,13.90
2022-10-09T11:17:53.633Z,13.80
2022-10-09T11:21:09.309Z,13.90
2022-10-09T11:24:54.582Z,13.60
2022-10-09T11:28:08.338Z,13.80
2022-10-09T11:31:19.897Z,13.90
2022-10-09T11:34:39.623Z,13.80
2022-10-09T11:37:46.087Z,13.60
2022-10-09T11:40:48.009Z,13.80
2022-10-09T11:44:07.862Z,13.90
2022-10-09T11:48:27.104Z,13.80
2022-10-09T11:51:57.141Z,13.70
2022-10-09T11:55:42.932Z,13.80
2022-10-09T11:58:43.925Z,13.70
2022-10-09T12:01:46.079Z,13.70
2022-10-09T12:04:54.782Z,13.80
2022-10-09T12:08:11.217Z,14.00
2022-10-09T12:11:19.104Z,14.10
2022-10-09T12:14:26.972Z,13.90
2022-10-09T12:17:27.912Z,13.90
2022-10-09T12:20:28.932Z,13.90
2022-10-09T12:23:36.119Z,13.80
2022-10-09T12:26:37.097Z,14.00
2022-10-09T12:29:47.388Z,14.30
2022-10-09T12:33:12.861Z,14.40
2022-10-09T12:36:23.585Z,14.20
2022-10-09T12:39:24.885Z,14.10
2022-10-09T12:42:27.169Z,14.30
2022-10-09T12:45:31.759Z,14.50
2022-10-09T12:48:40.262Z,14.50
2022-10-09T12:51:40.966Z,14.50
2022-10-09T12:54:44.851Z,14.60
2022-10-09T12:57:46.408Z,14.80
2022-10-09T13:00:52.470Z,15.10
2022-10-09T13:04:05.594Z,15.30
2022-10-09T13:07:20.015Z,15.30
2022-10-09T13:10:24.128Z,15.00
2022-10-09T13:13:28.663Z,15.20
2022-10-09T13:16:42.923Z,15.40
2022-10-09T13:19:54.234Z,15.30
2022-10-09T13:23:05.094Z,15.40
2022-10-09T13:26:06.511Z,15.30
2022-10-09T13:29:08.556Z,15.60
2022-10-09T13:32:17.669Z,15.70
2022-10-09T13:35:18.743Z,15.70
2022-10-09T13:38:20.456Z,15.80
2022-10-09T13:41:25.142Z,15.80
2022-10-09T13:44:26.923Z,15.50
2022-10-09T13:47:28.975Z,15.30
2022-10-09T13:50:29.883Z,15.10
2022-10-09T13:53:30.726Z,15.20
2022-10-09T13:56:31.444Z,15.20
2022-10-09T13:59:32.534Z,15.20
2022-10-09T14:02:33.755Z,15.30
2022-10-09T14:05:34.493Z,15.20
2022-10-09T14:08:35.386Z,15.30
2022-10-09T14:11:36.672Z,15.50
2022-10-09T14:14:37.769Z,15.40
2022-10-09T14:17:38.546Z,15.20
2022-10-09T14:20:39.778Z,15.20
2022-10-09T14:23:40.665Z,15.00
2022-10-09T14:26:41.463Z,14.90
2022-10-09T14:29:42.280Z,14.90
2022-10-09T14:32:42.866Z,14.80
2022-10-09T14:35:43.731Z,14.90
2022-10-09T14:38:46.463Z,14.90
2022-10-09T14:41:47.548Z,14.90
2022-10-09T14:44:48.629Z,14.80
2022-10-09T14:47:49.193Z,14.70
2022-10-09T14:50:49.970Z,14.70
2022-10-09T14:53:51.185Z,14.70
2022-10-09T14:56:52.207Z,14.70
2022-10-09T14:59:53.233Z,14.60
2022-10-09T15:02:56.330Z,14.50
2022-10-09T15:06:06.096Z,14.60
2022-10-09T15:09:06.855Z,14.40
2022-10-09T15:12:07.540Z,14.30
2022-10-09T15:15:09.433Z,14.30
2022-10-09T15:18:10.248Z,14.40
2022-10-09T15:21:17.917Z,14.30
2022-10-09T15:24:18.773Z,14.30
2022-10-09T15:27:19.434Z,14.30
2022-10-09T15:30:20.732Z,14.20
2022-10-09T15:33:22.618Z,14.30
2022-10-09T15:36:25.314Z,14.30
2022-10-09T15:39:26.491Z,14.20
2022-10-09T15:42:27.260Z,14.20
2022-10-09T15:45:27.990Z,14.20
2022-10-09T15:48:28.695Z,14.20
2022-10-09T15:51:33.242Z,14.10
2022-10-09T15:54:34.697Z,14.10
2022-10-09T15:57:35.675Z,14.00
2022-10-09T16:00:39.773Z,14.00
2022-10-09T16:03:41.012Z,13.90
2022-10-09T16:06:42.039Z,13.90
2022-10-09T16:09:43.166Z,13.80
2022-10-09T16:12:43.975Z,13.80
2022-10-09T16:15:47.661Z,13.80
2022-10-09T16:18:48.894Z,13.70
2022-10-09T16:21:51.297Z,13.70
2022-10-09T16:24:52.133Z,13.60
2022-10-09T16:27:53.207Z,13.60
2022-10-09T16:30:54.340Z,13.30
2022-10-09T16:33:56.647Z,13.30
2022-10-09T16:36:59.705Z,13.20
2022-10-09T16:40:00.611Z,13.10
2022-10-09T16:43:01.345Z,13.00
2022-10-09T16:46:20.122Z,13.00
2022-10-09T16:49:24.143Z,12.80
2022-10-09T16:52:26.370Z,12.80
2022-10-09T16:55:27.594Z,12.60
2022-10-09T16:58:28.525Z,12.60
2022-10-09T17:01:31.058Z,12.50
2022-10-09T17:04:32.296Z,12.40
2022-10-09T17:07:34.109Z,12.30
2022-10-09T17:10:35.603Z,12.20
2022-10-09T17:13:37.335Z,12.10
2022-10-09T17:16:40.800Z,12.10
2022-10-09T17:19:42.679Z,12.10
2022-10-09T17:22:43.852Z,12.00
2022-10-09T17:25:45.458Z,12.00
2022-10-09T17:28:48.591Z,11.90
2022-10-09T17:31:50.536Z,11.80
2022-10-09T17:34:51.535Z,11.60
2022-10-09T17:37:55.100Z,11.50
2022-10-09T17:40:56.520Z,11.40
2022-10-09T17:43:58.778Z,11.40
2022-10-09T17:47:00.965Z,11.50
2022-10-09T17:50:01.986Z,11.40
2022-10-09T17:53:04.619Z,11.30
2022-10-09T17:56:05.724Z,11.20
2022-10-09T17:59:07.399Z,11.10
2022-10-09T18:02:08.510Z,11.00
2022-10-09T18:05:09.332Z,10.90
2022-10-09T18:08:11.139Z,11.00
2022-10-09T18:11:16.434Z,11.00
2022-10-09T18:14:17.554Z,10.90
2022-10-09T18:17:18.804Z,10.80
2022-10-09T18:20:19.616Z,10.70
2022-10-09T18:23:22.674Z,10.70
2022-10-09T18:26:24.336Z,10.90
2022-10-09T18:29:25.414Z,11.00
2022-10-09T18:32:26.732Z,11.00
2022-10-09T18:35:30.457Z,11.00
2022-10-09T18:38:31.635Z,11.00
2022-10-09T18:41:33.442Z,11.00
2022-10-09T18:44:40.332Z,11.00
2022-10-09T18:47:42.246Z,10.90
2022-10-09T18:50:44.280Z,10.90
2022-10-09T18:53:51.806Z,10.80
2022-10-09T18:56:53.575Z,10.80
2022-10-09T18:59:58.540Z,10.60
2022-10-09T19:02:59.480Z,10.60
2022-10-09T19:06:00.344Z,10.60
2022-10-09T19:09:01.458Z,10.50
2022-10-09T19:12:02.519Z,10.30
2022-10-09T19:15:06.132Z,10.20
2022-10-09T19:18:09.269Z,10.20
2022-10-09T19:21:14.342Z,10.10
2022-10-09T19:24:15.448Z,10.20
2022-10-09T19:27:16.638Z,10.40
2022-10-09T19:30:17.960Z,10.30
2022-10-09T19:33:19.312Z,10.20
2022-10-09T19:36:20.406Z,10.40
2022-10-09T19:39:22.433Z,10.60
2022-10-09T19:42:24.879Z,10.60
2022-10-09T19:45:25.720Z,10.60
2022-10-09T19:48:26.520Z,10.50
2022-10-09T19:51:27.701Z,10.60
2022-10-09T19:54:28.606Z,10.60
2022-10-09T19:57:29.361Z,10.60
2022-10-09T20:00:31.116Z,10.50
2022-10-09T20:03:32.308Z,10.50
2022-10-09T20:06:33.957Z,10.40
2022-10-09T20:09:34.875Z,10.30
2022-10-09T20:12:35.908Z,10.30
2022-10-09T20:15:41.161Z,10.20
2022-10-09T20:18:43.255Z,10.10
2022-10-09T20:21:44.406Z,10.10
2022-10-09T20:24:45.517Z,10.10
2022-10-09T20:27:46.427Z,10.00
2022-10-09T20:30:57.407Z,9.90
2022-10-09T20:33:59.071Z,9.90
2022-10-09T20:37:00.008Z,9.90
2022-10-09T20:40:01.091Z,10.00
2022-10-09T20:43:02.002Z,10.00
2022-10-09T20:46:13.631Z,10.10
2022-10-09T20:49:15.211Z,10.00
2022-10-09T20:52:15.980Z,9.80
2022-10-09T20:55:17.313Z,9.50
2022-10-09T20:58:18.862Z,9.70
2022-10-09T21:01:20.308Z,9.70
2022-10-09T21:04:21.287Z,9.80
2022-10-09T21:07:22.232Z,9.80
2022-10-09T21:10:23.049Z,9.80
2022-10-09T21:13:23.951Z,9.80
2022-10-09T21:16:26.111Z,9.70
2022-10-09T21:19:26.927Z,9.70
2022-10-09T21:22:27.766Z,9.70
2022-10-09T21:25:28.527Z,9.70
2022-10-09T21:28:30.646Z,9.60
2022-10-09T21:31:33.362Z,9.50
2022-10-09T21:34:34.390Z,9.40
2022-10-09T21:37:37.510Z,9.50
2022-10-09T21:40:39.175Z,9.50
2022-10-09T21:43:39.933Z,9.50
2022-10-09T21:46:41.888Z,9.40
2022-10-09T21:49:42.676Z,9.30
2022-10-09T21:52:43.380Z,9.30
2022-10-09T21:55:44.246Z,9.20
2022-10-09T21:58:49.042Z,9.00
2022-10-09T22:01:49.822Z,9.00
2022-10-09T22:04:51.725Z,8.90
2022-10-09T22:07:52.868Z,8.90
2022-10-09T22:10:53.749Z,9.00
2022-10-09T22:13:56.094Z,9.00
2022-10-09T22:16:56.971Z,9.10
2022-10-09T22:19:57.814Z,9.00
2022-10-09T22:22:58.415Z,9.10
2022-10-09T22:26:04.223Z,9.20
2022-10-09T22:29:05.487Z,9.20
2022-10-09T22:32:06.210Z,8.90
2022-10-09T22:35:07.272Z,9.00
2022-10-09T22:38:08.245Z,9.00
2022-10-09T22:41:17.518Z,9.10
2022-10-09T22:44:18.368Z,9.10
2022-10-09T22:47:19.098Z,8.80
2022-10-09T22:50:19.831Z,8.80
2022-10-09T22:53:20.647Z,8.80
2022-10-09T22:56:25.761Z,8.90
2022-10-09T22:59:26.936Z,8.90
2022-10-09T23:02:27.926Z,8.90
2022-10-09T23:05:28.648Z,9.00
2022-10-09T23:08:29.346Z,9.10
2022-10-09T23:11:30.095Z,9.00
2022-10-09T23:14:31.031Z,8.90
2022-10-09T23:17:32.635Z,8.90
2022-10-09T23:20:37.405Z,8.90
2022-10-09T23:23:38.297Z,9.00
2022-10-09T23:26:39.263Z,9.00
2022-10-09T23:29:40.356Z,9.00
2022-10-09T23:32:41.492Z,9.00
2022-10-09T23:35:43.129Z,9.00
2022-10-09T23:38:44.440Z,9.00
2022-10-09T23:41:45.598Z,9.10
2022-10-09T23:44:46.398Z,9.10
2022-10-09T23:47:47.087Z,9.10
2022-10-09T23:50:49.877Z,9.00
2022-10-09T23:53:51.324Z,9.10
2022-10-09T23:56:52.296Z,9.20
2022-10-09T23:59:52.952Z,9.20
